Time;durP1;ratioP1;P1;durP2;ratioP2;P2;SDS_P1;SDS_P2;PMS_P1;PMS_P2;Temp;Humidity;BMP_temperature;BMP_pressure;BME280_temperature;BME280_humidity;BME280_pressure;Samples;Min_cycle;Max_cycle;Signal;HPM_P1;HPM_P2
2021/04/06 00:00:27;;;;;;;1.80;1.80;;;;;;;0.46;84.09;100888.22;5336698;26;20074;-73
2021/04/06 00:02:54;;;;;;;1.83;1.83;;;;;;;0.41;83.94;100882.25;5320486;26;20065;-72
2021/04/06 00:05:19;;;;;;;1.73;1.73;;;;;;;0.39;84.62;100877.94;5347037;26;20523;-71
2021/04/06 00:07:45;;;;;;;1.70;1.70;;;;;;;0.39;83.78;100872.78;5319022;26;20097;-71
2021/04/06 00:10:20;;;;;;;1.52;1.52;;;;;;;0.48;83.95;100863.25;5331410;26;20045;-72
2021/04/06 00:12:46;;;;;;;2.08;1.98;;;;;;;0.47;83.65;100851.22;5360593;26;20473;-71
2021/04/06 00:15:12;;;;;;;2.08;1.98;;;;;;;0.51;83.79;100873.56;5331411;26;20070;-73
2021/04/06 00:17:38;;;;;;;1.80;1.80;;;;;;;0.09;83.49;100804.19;5321103;26;20065;-72
2021/04/06 00:20:04;;;;;;;1.83;1.83;;;;;;;0.59;83.32;100870.03;5330426;26;20097;-72
2021/04/06 00:22:30;;;;;;;1.95;1.87;;;;;;;0.65;82.90;100870.87;5343459;26;20564;-72
2021/04/06 00:24:55;;;;;;;1.83;1.83;;;;;;;0.53;83.44;100858.91;5343289;26;20045;-72
2021/04/06 00:27:22;;;;;;;1.90;1.80;;;;;;;0.63;83.52;100888.97;5341922;26;20039;-72
2021/04/06 00:29:55;;;;;;;1.80;1.80;;;;;;;0.67;83.54;100875.16;5335177;26;20493;-72
2021/04/06 00:32:20;;;;;;;1.75;1.75;;;;;;;0.80;81.92;100888.81;5322412;26;20399;-72
2021/04/06 00:34:45;;;;;;;1.80;1.80;;;;;;;0.73;82.71;100897.50;5328016;26;20035;-72
2021/04/06 00:37:14;;;;;;;1.80;1.70;;;;;;;0.37;82.84;100840.97;5345223;26;20306;-72
2021/04/06 00:39:40;;;;;;;1.70;1.70;;;;;;;0.75;82.91;100904.34;5337694;26;20760;-72
2021/04/06 00:42:09;;;;;;;1.60;1.60;;;;;;;0.82;82.57;100917.22;5322052;26;20441;-73
2021/04/06 00:44:55;;;;;;;1.60;1.60;;;;;;;0.86;82.52;100908.56;5341415;26;20045;-73
2021/04/06 00:47:26;;;;;;;1.60;1.60;;;;;;;0.85;82.17;100904.28;5339575;26;20494;-71
2021/04/06 00:49:53;;;;;;;1.65;1.65;;;;;;;0.87;81.93;100905.13;5321363;26;20049;-74
2021/04/06 00:52:18;;;;;;;1.70;1.70;;;;;;;0.79;82.47;100903.44;5341318;26;20508;-72
2021/04/06 00:54:43;;;;;;;1.80;1.80;;;;;;;0.82;82.72;100905.16;5324484;26;20116;-72
2021/04/06 00:57:09;;;;;;;3.37;3.28;;;;;;;0.72;82.54;100909.56;5318988;26;20043;-72
2021/04/06 00:59:34;;;;;;;1.70;1.70;;;;;;;0.74;82.94;100906.94;5320226;26;20574;-73
2021/04/06 01:02:04;;;;;;;1.70;1.70;;;;;;;0.72;82.35;100903.50;5320797;26;20039;-72
2021/04/06 01:04:32;;;;;;;1.80;1.80;;;;;;;0.76;82.50;100908.66;5321104;26;20049;-74
2021/04/06 01:07:03;;;;;;;2.42;2.33;;;;;;;0.71;82.51;100899.22;5322364;26;20112;-73
2021/04/06 01:09:34;;;;;;;1.90;1.80;;;;;;;0.84;82.72;100925.81;5320965;26;20108;-72
2021/04/06 01:12:04;;;;;;;1.70;1.70;;;;;;;0.80;82.33;100917.22;5357856;26;20082;-73
2021/04/06 01:14:33;;;;;;;1.70;1.70;;;;;;;0.77;82.69;100912.09;5340186;26;20391;-74
2021/04/06 01:16:59;;;;;;;1.80;1.80;;;;;;;0.85;82.10;100925.81;5339726;26;20497;-72
2021/04/06 01:19:27;;;;;;;1.70;1.70;;;;;;;0.16;82.66;100823.94;5344666;26;20133;-73
2021/04/06 01:21:52;;;;;;;1.70;1.70;;;;;;;0.85;81.79;100925.81;5342755;26;20406;-72
2021/04/06 01:24:19;;;;;;;1.70;1.70;;;;;;;0.82;82.29;100920.66;5342230;26;20116;-72
2021/04/06 01:26:45;;;;;;;1.60;1.60;;;;;;;0.82;82.59;100937.88;5343601;26;20817;-73
2021/04/06 01:29:10;;;;;;;2.17;2.08;;;;;;;0.83;82.80;100934.44;5342283;26;20134;-74
2021/04/06 01:31:35;;;;;;;1.70;1.70;;;;;;;0.86;81.40;100927.50;5342293;26;20035;-72
2021/04/06 01:34:02;;;;;;;1.80;1.80;;;;;;;0.87;81.81;100924.06;5342433;26;20550;-72
2021/04/06 01:36:28;;;;;;;2.05;1.95;;;;;;;0.88;81.68;100923.22;5342487;26;20389;-72
2021/04/06 01:38:53;;;;;;;2.00;1.90;;;;;;;0.83;80.79;100926.69;5343031;26;20035;-73
2021/04/06 01:41:18;;;;;;;1.80;1.80;;;;;;;0.92;81.31;100919.72;5319694;26;20035;-73
2021/04/06 01:43:47;;;;;;;2.10;2.00;;;;;;;0.53;80.93;100861.50;5320360;26;20043;-72
2021/04/06 01:46:16;;;;;;;1.70;1.70;;;;;;;0.90;81.87;100918.00;5320538;26;20493;-72
2021/04/06 01:48:42;;;;;;;1.70;1.70;;;;;;;0.95;81.82;100930.00;5322261;26;20042;-73
2021/04/06 01:51:07;;;;;;;1.80;1.80;;;;;;;0.94;81.95;100936.06;5334882;26;20733;-72
2021/04/06 01:53:33;;;;;;;1.85;1.85;;;;;;;0.88;81.67;100925.78;5338385;26;20050;-72
2021/04/06 01:56:06;;;;;;;1.98;1.87;;;;;;;0.89;82.63;100934.38;5338105;26;20039;-72
2021/04/06 01:58:34;;;;;;;1.70;1.70;;;;;;;0.88;81.90;100922.31;5337142;26;20034;-73
2021/04/06 02:03:53;;;;;;;1.70;1.70;;;;;;;0.84;81.67;100939.56;5357460;26;20066;-72
2021/04/06 02:06:18;;;;;;;1.52;1.52;;;;;;;0.70;82.26;100939.72;5339149;26;20043;-72
2021/04/06 02:08:50;;;;;;;1.70;1.70;;;;;;;0.61;83.56;100942.34;5339266;26;20039;-72
2021/04/06 02:11:17;;;;;;;2.00;1.90;;;;;;;0.49;83.67;100945.87;5336935;26;20057;-72
2021/04/06 02:13:42;;;;;;;1.70;1.70;;;;;;;0.45;84.54;100954.50;5339408;26;20046;-73
2021/04/06 02:16:08;;;;;;;1.70;1.70;;;;;;;0.50;83.69;100941.56;5323374;26;20039;-71
2021/04/06 02:18:33;;;;;;;1.67;1.67;;;;;;;0.57;83.11;100941.50;5324507;26;20039;-72
2021/04/06 02:21:00;;;;;;;1.90;1.85;;;;;;;0.64;82.12;100944.88;5323215;26;20723;-73
2021/04/06 02:23:27;;;;;;;1.70;1.70;;;;;;;0.75;82.12;100942.25;5342875;26;20614;-71
2021/04/06 02:25:55;;;;;;;1.70;1.70;;;;;;;0.78;81.19;100949.97;5328669;26;20050;-72
2021/04/06 02:28:24;;;;;;;1.67;1.67;;;;;;;0.80;81.75;100955.97;5323907;26;20901;-71
2021/04/06 02:30:53;;;;;;;1.80;1.80;;;;;;;0.73;81.67;100949.16;5321619;26;20046;-72
2021/04/06 02:33:22;;;;;;;1.60;1.60;;;;;;;0.67;82.35;100956.94;5343507;26;20053;-72
2021/04/06 02:35:58;;;;;;;1.70;1.70;;;;;;;0.65;83.28;100956.09;5330616;26;20587;-73
2021/04/06 02:38:24;;;;;;;1.80;1.80;;;;;;;0.25;83.47;100904.75;5324475;26;20035;-71
2021/04/06 02:40:49;;;;;;;1.87;1.85;;;;;;;0.45;84.42;100951.06;5336924;26;20492;-70
2021/04/06 02:43:14;;;;;;;1.60;1.60;;;;;;;0.43;84.54;100948.50;5343507;26;20072;-70
2021/04/06 02:45:40;;;;;;;1.83;1.83;;;;;;;0.26;84.41;100938.28;5340816;26;20468;-71
2021/04/06 02:48:10;;;;;;;1.70;1.70;;;;;;;0.39;84.08;100960.56;5342161;26;20035;-73
2021/04/06 02:50:36;;;;;;;2.03;1.92;;;;;;;0.27;85.25;100958.06;5331904;26;20066;-71
2021/04/06 02:53:05;;;;;;;1.92;1.83;;;;;;;0.30;84.89;100949.44;5321737;26;20046;-72
2021/04/06 02:55:30;;;;;;;2.05;1.95;;;;;;;0.34;84.74;100935.63;5322810;26;20042;-71
2021/04/06 02:57:55;;;;;;;1.80;1.80;;;;;;;0.34;83.75;100948.53;5322694;26;20039;-70
2021/04/06 03:00:27;;;;;;;1.70;1.70;;;;;;;0.30;84.35;100944.25;5328182;26;20087;-71
2021/04/06 03:02:55;;;;;;;1.95;1.90;;;;;;;0.23;84.24;100943.44;5360636;26;20108;-71
2021/04/06 03:05:33;;;;;;;1.80;1.80;;;;;;;0.26;84.46;100953.78;5321850;26;20165;-71
2021/04/06 03:07:59;;;;;;;1.70;1.70;;;;;;;-0.01;83.86;100909.16;5342504;26;20047;-71
2021/04/06 03:10:25;;;;;;;1.70;1.70;;;;;;;0.16;84.66;100944.34;5340259;26;20049;-72
2021/04/06 03:12:50;;;;;;;2.10;2.00;;;;;;;-0.02;84.93;100907.47;5341437;26;20049;-72
2021/04/06 03:15:26;;;;;;;2.00;1.90;;;;;;;0.16;85.25;100950.38;5340655;26;20084;-72
2021/04/06 03:17:54;;;;;;;1.70;1.70;;;;;;;0.16;84.76;100945.22;5342573;26;20130;-73
2021/04/06 03:20:20;;;;;;;1.80;1.80;;;;;;;0.24;84.96;100949.47;5357934;26;20057;-73
2021/04/06 03:22:47;;;;;;;1.80;1.80;;;;;;;0.17;84.53;100952.09;5340924;26;20039;-71
2021/04/06 03:25:13;;;;;;;2.00;1.90;;;;;;;0.15;85.47;100947.81;5341187;26;20576;-72
2021/04/06 03:27:41;;;;;;;1.80;1.80;;;;;;;0.15;84.92;100942.63;5340474;26;20070;-72
2021/04/06 03:30:07;;;;;;;1.70;1.70;;;;;;;0.02;86.07;100936.69;5340733;26;20052;-72
2021/04/06 03:32:33;;;;;;;1.73;1.73;;;;;;;-0.05;86.04;100928.09;5341317;26;20055;-72
2021/04/06 03:34:58;;;;;;;2.00;1.90;;;;;;;-0.11;86.24;100924.72;5341067;26;20031;-72
2021/04/06 03:37:24;;;;;;;1.60;1.60;;;;;;;-0.17;86.08;100929.91;5342850;26;20376;-73
2021/04/06 03:39:49;;;;;;;1.62;1.62;;;;;;;-0.20;87.04;100925.63;5342675;26;20045;-72
2021/04/06 03:42:25;;;;;;;1.75;1.75;;;;;;;-0.22;87.20;100937.63;5341705;26;20042;-72
2021/04/06 03:44:50;;;;;;;1.70;1.70;;;;;;;-0.20;87.06;100933.34;5342154;26;20101;-72
2021/04/06 03:47:16;;;;;;;2.00;1.90;;;;;;;-0.16;86.99;100936.75;5341475;26;20204;-72
2021/04/06 03:49:48;;;;;;;2.00;1.90;;;;;;;-0.17;87.45;100938.50;5342354;26;20065;-72
2021/04/06 03:52:14;;;;;;;1.98;1.90;;;;;;;-0.20;87.60;100930.78;5360240;26;20035;-72
2021/04/06 03:54:44;;;;;;;1.70;1.70;;;;;;;-0.74;87.56;100852.75;5339914;26;20038;-72
2021/04/06 03:57:22;;;;;;;2.00;1.90;;;;;;;-0.28;87.80;100920.50;5342344;26;20031;-73
2021/04/06 03:59:48;;;;;;;1.70;1.70;;;;;;;-0.16;87.11;100922.16;5360491;26;20050;-72
2021/04/06 04:02:13;;;;;;;1.70;1.70;;;;;;;-0.11;86.63;100925.56;5321483;26;20544;-71
2021/04/06 04:04:39;;;;;;;1.70;1.70;;;;;;;-0.09;86.28;100922.97;5327012;26;20045;-71
2021/04/06 04:07:06;;;;;;;1.60;1.60;;;;;;;-0.04;85.94;100929.84;5326363;26;20043;-72
2021/04/06 04:09:32;;;;;;;1.60;1.60;;;;;;;-0.49;85.96;100881.88;5325613;26;20416;-73
2021/04/06 04:11:57;;;;;;;1.70;1.70;;;;;;;-0.12;86.12;100936.75;5342909;26;20054;-72
2021/04/06 04:14:23;;;;;;;6.18;2.70;;;;;;;-0.33;86.66;100914.47;5341547;26;20479;-73
2021/04/06 04:16:48;;;;;;;1.80;1.80;;;;;;;-0.16;86.20;100947.97;5325222;26;20042;-71
2021/04/06 04:19:13;;;;;;;1.90;1.90;;;;;;;-0.16;86.53;100945.37;5323077;26;20034;-72
2021/04/06 04:21:39;;;;;;;1.65;1.65;;;;;;;-0.19;86.60;100942.78;5323523;26;20532;-71
2021/04/06 04:24:04;;;;;;;1.83;1.80;;;;;;;-0.26;86.20;100946.25;5325155;26;20069;-72
2021/04/06 04:26:30;;;;;;;1.70;1.70;;;;;;;-0.32;86.42;100929.09;5324618;26;20057;-72
2021/04/06 04:28:55;;;;;;;1.60;1.60;;;;;;;-0.22;86.63;100943.66;5324446;26;20045;-72
2021/04/06 04:31:20;;;;;;;1.50;1.50;;;;;;;-0.25;86.43;100953.13;5341586;26;20447;-72
2021/04/06 04:33:46;;;;;;;1.90;1.90;;;;;;;-0.24;86.32;100954.84;5344082;26;20035;-72
2021/04/06 04:36:11;;;;;;;1.95;1.90;;;;;;;-0.28;86.40;100933.38;5342807;26;20465;-72
2021/04/06 04:38:37;;;;;;;1.90;1.90;;;;;;;-0.26;86.37;100951.41;5343617;26;20058;-72
2021/04/06 04:41:02;;;;;;;1.70;1.70;;;;;;;-0.32;86.59;100952.31;5342902;26;20061;-74
2021/04/06 04:43:27;;;;;;;1.70;1.70;;;;;;;-0.34;86.55;100958.31;5344510;26;20042;-72
2021/04/06 04:45:53;;;;;;;1.60;1.60;;;;;;;-0.31;85.83;100948.00;5343483;26;20039;-72
2021/04/06 04:48:18;;;;;;;1.70;1.70;;;;;;;-0.33;86.04;100957.47;5343133;26;20532;-72
2021/04/06 04:50:44;;;;;;;2.00;1.90;;;;;;;-0.36;86.87;100970.34;5341460;26;20045;-72
2021/04/06 04:53:09;;;;;;;1.60;1.60;;;;;;;-0.36;86.03;100966.06;5342302;26;20050;-72
2021/04/06 04:55:34;;;;;;;2.00;1.90;;;;;;;-0.35;86.58;100965.19;5341397;26;20665;-71
2021/04/06 04:58:00;;;;;;;1.60;1.60;;;;;;;-0.19;85.65;100978.06;5343638;26;20046;-72
2021/04/06 05:00:25;;;;;;;1.50;1.50;;;;;;;-0.10;84.88;100970.25;5342932;26;20039;-73
2021/04/06 05:02:51;;;;;;;1.90;1.90;;;;;;;-0.17;84.88;100935.06;5339357;26;20039;-73
2021/04/06 05:05:17;;;;;;;1.60;1.60;;;;;;;0.01;84.57;100963.34;5342509;26;20351;-72
2021/04/06 05:07:43;;;;;;;1.70;1.70;;;;;;;0.17;84.42;100970.16;5343609;26;20109;-73
2021/04/06 05:10:11;;;;;;;1.70;1.70;;;;;;;0.19;84.01;100959.81;5336487;26;20047;-72
2021/04/06 05:12:36;;;;;;;1.60;1.60;;;;;;;0.23;83.05;100969.25;5325426;26;20602;-72
2021/04/06 05:15:05;;;;;;;1.77;1.77;;;;;;;0.27;82.98;100964.94;5324023;26;20149;-73
2021/04/06 05:17:31;;;;;;;1.50;1.50;;;;;;;0.27;83.27;100972.69;5343826;26;20053;-74
2021/04/06 05:19:56;;;;;;;1.50;1.50;;;;;;;0.24;82.75;100971.00;5324356;26;20031;-72
2021/04/06 05:22:22;;;;;;;1.80;1.80;;;;;;;0.14;82.87;100961.56;5322821;26;20053;-73
2021/04/06 05:24:47;;;;;;;1.70;1.70;;;;;;;-1.07;82.84;100769.56;5323231;26;20054;-72
2021/04/06 05:27:12;;;;;;;1.70;1.70;;;;;;;0.09;83.31;100966.75;5324639;26;20050;-72
2021/04/06 05:29:38;;;;;;;2.00;1.90;;;;;;;0.06;82.83;100966.78;5321575;26;20042;-72
2021/04/06 05:32:03;;;;;;;1.60;1.60;;;;;;;0.04;83.44;100971.09;5343285;26;20070;-72
2021/04/06 05:34:29;;;;;;;1.60;1.60;;;;;;;0.09;82.86;100987.38;5342830;26;20047;-72
2021/04/06 05:36:54;;;;;;;1.60;1.60;;;;;;;0.02;82.46;100957.34;5322924;26;20250;-73
2021/04/06 05:39:20;;;;;;;1.80;1.80;;;;;;;0.05;82.84;100972.78;5323731;26;20034;-72
2021/04/06 05:41:46;;;;;;;1.60;1.60;;;;;;;0.09;82.92;100968.47;5324611;26;20105;-73
2021/04/06 05:44:12;;;;;;;1.70;1.70;;;;;;;0.06;82.71;100969.37;5322872;26;20055;-72
2021/04/06 05:46:39;;;;;;;1.73;1.73;;;;;;;0.12;81.58;100977.06;5324212;26;20062;-72
2021/04/06 05:49:10;;;;;;;2.03;1.92;;;;;;;-0.20;82.15;100933.34;5323374;26;20035;-72
2021/04/06 05:51:39;;;;;;;1.80;1.80;;;;;;;0.11;81.89;100984.81;5321887;26;20362;-73
2021/04/06 05:54:06;;;;;;;1.80;1.80;;;;;;;0.16;82.12;100995.94;5343252;26;20135;-71
2021/04/06 05:56:32;;;;;;;2.00;1.90;;;;;;;-0.24;81.61;100934.19;5323317;26;20053;-72
2021/04/06 05:58:58;;;;;;;1.65;1.65;;;;;;;0.23;81.05;101001.97;5342479;26;20042;-72
2021/04/06 06:01:36;;;;;;;1.60;1.60;;;;;;;0.30;80.76;100999.34;5342747;26;20062;-72
2021/04/06 06:04:01;;;;;;;1.80;1.80;;;;;;;0.42;81.07;100994.97;5341826;26;20038;-71
2021/04/06 06:06:27;;;;;;;1.60;1.60;;;;;;;0.33;80.82;100989.00;5341448;26;20150;-71
2021/04/06 06:09:03;;;;;;;1.67;1.67;;;;;;;0.53;81.14;100996.63;5344657;26;20053;-73
2021/04/06 06:11:28;;;;;;;1.98;1.90;;;;;;;0.59;79.98;100999.16;5342718;26;20042;-73
2021/04/06 06:13:54;;;;;;;3.15;2.60;;;;;;;0.59;80.64;100995.75;5343965;26;20049;-72
2021/04/06 06:16:21;;;;;;;1.70;1.70;;;;;;;0.48;80.30;101000.09;5341732;26;20039;-72
2021/04/06 06:18:53;;;;;;;1.67;1.67;;;;;;;0.46;80.04;101002.72;5342088;26;20052;-73
2021/04/06 06:21:18;;;;;;;1.60;1.60;;;;;;;-0.01;80.49;100937.56;5357807;26;20058;-73
2021/04/06 06:23:44;;;;;;;1.65;1.65;;;;;;;0.44;80.99;101003.56;5343089;26;20042;-74
2021/04/06 06:26:09;;;;;;;1.70;1.70;;;;;;;0.45;81.20;101006.16;5326201;26;20035;-73
2021/04/06 06:28:35;;;;;;;1.80;1.80;;;;;;;0.50;80.52;101009.56;5362224;26;20088;-72
2021/04/06 06:31:01;;;;;;;2.00;1.90;;;;;;;0.49;81.22;101005.25;5328323;26;20076;-71
2021/04/06 06:33:28;;;;;;;1.67;1.67;;;;;;;0.61;80.59;101018.97;5323709;26;20042;-71
2021/04/06 06:35:59;;;;;;;5.87;5.60;;;;;;;0.68;81.40;101018.06;5317582;26;20423;-70
2021/04/06 06:38:41;;;;;;;1.80;1.80;;;;;;;0.66;81.19;101012.91;5321761;26;20447;-71
2021/04/06 06:41:18;;;;;;;2.00;1.90;;;;;;;0.70;80.46;101017.19;5322557;26;20042;-72
2021/04/06 06:43:52;;;;;;;1.60;1.60;;;;;;;0.81;79.79;101008.53;5341455;26;20150;-72
2021/04/06 06:46:21;;;;;;;1.70;1.70;;;;;;;0.83;79.54;101001.62;5356944;26;20046;-73
2021/04/06 06:48:54;;;;;;;1.67;1.67;;;;;;;1.02;80.46;101004.91;5341328;26;20562;-72
2021/04/06 06:51:20;;;;;;;1.70;1.70;;;;;;;1.16;78.93;101011.69;5326935;26;20039;-73
2021/04/06 06:53:45;;;;;;;2.20;2.10;;;;;;;1.09;79.07;101012.59;5340009;26;20047;-73
2021/04/06 06:56:11;;;;;;;1.80;1.80;;;;;;;1.05;80.19;101008.31;5324687;26;20099;-72
2021/04/06 06:58:40;;;;;;;2.05;1.98;;;;;;;1.21;79.72;101013.37;5322187;26;20043;-74
2021/04/06 07:01:05;;;;;;;1.70;1.70;;;;;;;1.27;77.99;101006.41;5340837;26;20124;-72
2021/04/06 07:03:31;;;;;;;2.20;2.10;;;;;;;1.43;78.99;101006.28;5319196;26;20038;-73
2021/04/06 07:05:56;;;;;;;2.17;2.08;;;;;;;1.25;77.38;100948.69;5319122;26;20367;-74
2021/04/06 07:08:33;;;;;;;2.00;1.90;;;;;;;1.88;77.32;101004.06;5322746;26;20104;-72
2021/04/06 07:11:00;;;;;;;2.00;1.90;;;;;;;1.68;76.08;101002.56;5329742;26;20058;-73
2021/04/06 07:13:29;;;;;;;2.08;1.98;;;;;;;1.62;76.96;101002.63;5320251;26;20038;-73
2021/04/06 07:15:56;;;;;;;2.05;1.95;;;;;;;1.47;75.92;101001.06;5320028;26;20841;-72
2021/04/06 07:18:24;;;;;;;2.10;2.00;;;;;;;1.55;77.69;101001.84;5321465;26;20133;-72
2021/04/06 07:21:01;;;;;;;1.80;1.80;;;;;;;1.71;75.88;100988.75;5321392;26;20035;-72
2021/04/06 07:23:30;;;;;;;1.80;1.80;;;;;;;1.96;75.74;101002.25;5322000;26;20401;-73
2021/04/06 07:25:55;;;;;;;2.00;1.90;;;;;;;2.02;74.52;101001.31;5339080;26;20127;-73
2021/04/06 07:28:21;;;;;;;1.85;1.85;;;;;;;1.83;73.89;100986.03;5340110;26;20051;-73
2021/04/06 07:30:47;;;;;;;2.12;2.03;;;;;;;1.88;74.24;100978.19;5338322;26;20496;-71
2021/04/06 07:33:14;;;;;;;2.10;2.00;;;;;;;2.02;74.35;101002.19;5319987;26;20042;-72
2021/04/06 07:35:39;;;;;;;2.10;2.00;;;;;;;2.42;71.99;100980.94;5328566;26;20046;-72
2021/04/06 07:38:04;;;;;;;2.00;1.90;;;;;;;2.41;72.14;100976.66;5321111;26;20096;-72
2021/04/06 07:40:31;;;;;;;2.25;2.15;;;;;;;2.43;70.09;100993.03;5333186;26;20089;-73
2021/04/06 07:42:57;;;;;;;2.00;1.90;;;;;;;2.39;71.07;100987.03;5344504;26;20057;-72
2021/04/06 07:45:22;;;;;;;2.28;2.17;;;;;;;2.35;70.31;100987.97;5339444;26;20051;-72
2021/04/06 07:47:47;;;;;;;2.03;1.92;;;;;;;2.36;71.34;100992.25;5376468;26;20617;-73
2021/04/06 07:50:13;;;;;;;1.95;1.87;;;;;;;2.19;71.66;100989.03;5332726;26;20264;-71
2021/04/06 07:52:39;;;;;;;2.12;2.03;;;;;;;2.34;71.92;101000.91;5321374;26;20072;-72
2021/04/06 07:55:04;;;;;;;1.80;1.80;;;;;;;2.12;72.35;101002.94;5319430;26;20513;-70
2021/04/06 07:57:41;;;;;;;1.95;1.87;;;;;;;2.04;72.55;100994.41;5338811;26;20143;-72
2021/04/06 08:00:07;;;;;;;2.33;2.25;;;;;;;1.98;70.68;100983.25;5333869;26;20197;-72
2021/04/06 08:02:33;;;;;;;2.05;1.95;;;;;;;2.18;70.37;100997.66;5318505;26;20398;-72
2021/04/06 08:04:59;;;;;;;2.00;1.90;;;;;;;2.30;70.11;101000.09;5317759;26;20077;-72
2021/04/06 08:07:33;;;;;;;2.10;2.00;;;;;;;2.12;68.98;100992.56;5321052;26;20538;-70
2021/04/06 08:10:22;;;;;;;1.83;1.80;;;;;;;2.10;71.34;100995.16;5337867;26;20054;-74
2021/04/06 08:12:48;;;;;;;2.53;2.42;;;;;;;2.15;71.26;100992.53;5357134;26;20482;-72
2021/04/06 08:15:19;;;;;;;2.20;2.10;;;;;;;2.54;70.09;100991.12;5354699;26;20059;-71
2021/04/06 08:17:49;;;;;;;2.00;1.90;;;;;;;3.04;70.40;100990.41;5339552;26;20043;-72
2021/04/06 08:20:23;;;;;;;2.10;2.00;;;;;;;3.43;67.64;100978.47;5339126;26;20058;-72
2021/04/06 08:22:58;;;;;;;3.97;3.67;;;;;;;3.67;67.07;100989.28;5338154;26;20111;-72
2021/04/06 08:25:30;;;;;;;2.30;2.20;;;;;;;3.89;65.56;100985.41;5358759;26;20046;-71
2021/04/06 08:28:02;;;;;;;2.35;2.25;;;;;;;3.24;66.10;100988.31;5358660;26;20142;-72
2021/04/06 08:30:30;;;;;;;2.00;1.90;;;;;;;3.41;64.59;100975.06;5320985;26;20069;-73
2021/04/06 08:33:02;;;;;;;2.10;2.00;;;;;;;3.12;65.30;100989.37;5323004;26;20046;-72
2021/04/06 08:35:46;;;;;;;2.40;2.30;;;;;;;3.11;67.71;100992.87;5357286;26;20471;-70
2021/04/06 08:38:24;;;;;;;2.00;1.90;;;;;;;3.24;66.08;100979.69;5358613;26;20043;-72
2021/04/06 08:40:52;;;;;;;2.40;2.30;;;;;;;3.39;67.13;100995.84;5358140;26;20274;-71
2021/04/06 08:43:19;;;;;;;2.20;2.10;;;;;;;2.96;66.34;100988.75;5359268;26;20101;-73
2021/04/06 08:46:17;;;;;;;2.30;2.20;;;;;;;3.09;66.84;101017.97;5321147;26;20042;-71
2021/04/06 08:51:17;;;;;;;2.10;2.00;;;;;;;3.22;67.53;101000.44;5378067;26;20166;-72
2021/04/06 08:53:42;;;;;;;2.10;2.00;;;;;;;3.33;67.37;100992.50;5358826;26;20035;-74
2021/04/06 08:56:12;;;;;;;2.15;2.05;;;;;;;2.15;64.78;100809.56;5320767;26;20526;-73
2021/04/06 08:58:38;;;;;;;2.10;2.00;;;;;;;3.33;67.37;100997.69;5322915;26;20161;-71
2021/04/06 09:01:06;;;;;;;2.00;1.90;;;;;;;3.55;66.05;100999.00;5334170;26;20057;-72
2021/04/06 09:03:32;;;;;;;2.28;2.17;;;;;;;3.63;65.63;101005.78;5320552;26;20042;-73
2021/04/06 09:06:08;;;;;;;2.25;2.15;;;;;;;3.33;64.10;100993.34;5333798;26;20456;-74
2021/04/06 09:08:50;;;;;;;2.17;2.08;;;;;;;3.35;66.40;101001.12;5344595;26;20046;-73
2021/04/06 09:11:20;;;;;;;2.00;1.90;;;;;;;3.22;65.75;100990.09;5341227;26;20073;-72
2021/04/06 09:13:46;;;;;;;2.20;2.10;;;;;;;3.44;66.09;100987.97;5323562;26;20709;-73
2021/04/06 09:16:12;;;;;;;2.00;1.90;;;;;;;3.02;66.47;100992.16;5322940;26;20053;-72
2021/04/06 09:18:37;;;;;;;2.20;2.10;;;;;;;3.16;67.33;101000.56;5320435;26;20051;-73
2021/04/06 09:21:06;;;;;;;2.20;2.10;;;;;;;3.13;67.46;101003.22;5319750;26;20077;-74
2021/04/06 09:23:32;;;;;;;2.30;2.20;;;;;;;3.44;65.05;100992.31;5320507;26;20066;-73
2021/04/06 09:25:57;;;;;;;3.62;3.42;;;;;;;4.13;65.17;100983.16;5317353;26;20136;-74
2021/04/06 09:28:23;;;;;;;2.20;2.10;;;;;;;4.36;62.39;100974.88;5338768;26;20042;-73
2021/04/06 09:30:48;;;;;;;2.00;1.90;;;;;;;4.37;61.37;100972.25;5340302;26;20065;-72
2021/04/06 09:33:15;;;;;;;2.20;2.10;;;;;;;4.13;59.57;100964.97;5342017;26;20073;-72
2021/04/06 09:35:45;;;;;;;2.95;2.85;;;;;;;4.29;60.60;100962.91;5334622;26;20067;-75
2021/04/06 09:38:10;;;;;;;2.40;2.30;;;;;;;4.31;59.03;100937.75;5339315;26;20417;-73
2021/04/06 09:40:38;;;;;;;2.50;2.40;;;;;;;4.35;59.17;100944.59;5338938;26;20107;-73
2021/04/06 09:43:04;;;;;;;2.25;2.15;;;;;;;4.53;59.96;100962.37;5340648;26;20252;-71
2021/04/06 09:45:29;;;;;;;2.10;2.00;;;;;;;4.31;59.94;100958.53;5339699;26;20329;-71
2021/04/06 09:47:55;;;;;;;2.22;2.12;;;;;;;4.55;58.25;100952.81;5340388;26;20043;-73
2021/04/06 09:50:22;;;;;;;2.40;2.30;;;;;;;4.77;58.88;100947.94;5338750;26;20051;-73
2021/04/06 09:52:47;;;;;;;2.40;2.30;;;;;;;4.87;57.62;100948.59;5339075;26;20043;-73
2021/04/06 09:55:13;;;;;;;2.30;2.20;;;;;;;4.72;59.35;100948.94;5340307;26;20582;-73
2021/04/06 09:57:40;;;;;;;2.58;2.47;;;;;;;4.55;59.73;100949.31;5339437;26;20050;-73
2021/04/06 10:00:17;;;;;;;2.42;2.33;;;;;;;4.42;59.32;100945.31;5319910;26;20480;-73
2021/04/06 10:02:44;;;;;;;2.30;2.20;;;;;;;4.61;60.70;100941.41;5322574;26;20057;-73
2021/04/06 10:05:20;;;;;;;2.20;2.10;;;;;;;4.46;59.23;100936.56;5324717;26;20771;-74
2021/04/06 10:07:49;;;;;;;2.28;2.17;;;;;;;4.46;58.92;100936.56;5337655;26;20054;-72
2021/04/06 10:10:23;;;;;;;2.33;2.22;;;;;;;4.29;59.44;100931.72;5328673;26;20042;-73
2021/04/06 10:12:49;;;;;;;2.80;2.70;;;;;;;5.05;57.99;100930.78;5334750;26;20436;-73
2021/04/06 10:15:22;;;;;;;2.33;2.22;;;;;;;5.23;55.84;100929.47;5333197;26;20474;-73
2021/04/06 10:17:48;;;;;;;2.30;2.20;;;;;;;4.67;57.54;100941.28;5321173;26;20056;-73
2021/04/06 10:20:15;;;;;;;2.40;2.30;;;;;;;3.81;68.25;100940.56;5326425;26;20061;-73
2021/04/06 10:22:59;;;;;;;2.40;2.30;;;;;;;3.16;73.33;100961.66;5321195;26;20173;-73
2021/04/06 10:25:26;;;;;;;2.30;2.20;;;;;;;2.71;74.46;100925.28;5318753;26;20142;-72
2021/04/06 10:27:56;;;;;;;2.20;2.10;;;;;;;3.00;75.49;100948.09;5339819;26;20047;-73
2021/04/06 10:30:26;;;;;;;2.28;2.17;;;;;;;3.67;72.88;100938.25;5330724;26;20042;-73
2021/04/06 10:32:51;;;;;;;2.30;2.20;;;;;;;4.02;70.88;100928.87;5338546;26;20058;-74
2021/04/06 10:35:27;;;;;;;2.10;2.00;;;;;;;3.02;67.92;100770.03;5326627;26;20460;-73
2021/04/06 10:37:57;;;;;;;2.20;2.10;;;;;;;4.27;68.53;100916.19;5336954;26;20284;-71
2021/04/06 10:40:24;;;;;;;2.20;2.10;;;;;;;5.16;65.83;100897.56;5334043;26;20176;-72
2021/04/06 10:42:51;;;;;;;2.25;2.15;;;;;;;4.46;61.71;100861.19;5322459;26;20619;-71
2021/04/06 10:45:20;;;;;;;2.37;2.22;;;;;;;5.08;63.41;100905.56;5321318;26;20114;-72
2021/04/06 10:47:45;;;;;;;2.55;2.45;;;;;;;4.87;59.66;100859.28;5322362;26;20046;-71
2021/04/06 10:50:11;;;;;;;2.50;2.40;;;;;;;5.02;59.21;100884.91;5321481;26;20469;-71
2021/04/06 10:52:36;;;;;;;2.30;2.20;;;;;;;5.08;59.10;100889.09;5339771;26;20352;-72
2021/04/06 10:55:04;;;;;;;2.58;2.47;;;;;;;5.09;56.51;100868.25;5336046;26;20053;-72
2021/04/06 10:57:32;;;;;;;2.30;2.20;;;;;;;4.87;56.84;100877.50;5320424;26;20057;-73
2021/04/06 10:59:57;;;;;;;2.55;2.45;;;;;;;5.29;58.79;100869.44;5321600;26;20054;-72
2021/04/06 11:02:24;;;;;;;2.50;2.40;;;;;;;4.72;57.50;100822.41;5320677;26;20481;-73
2021/04/06 11:04:49;;;;;;;2.20;2.10;;;;;;;4.63;58.89;100876.38;5321266;26;20039;-73
2021/04/06 11:07:15;;;;;;;3.92;3.75;;;;;;;4.39;59.54;100889.94;5319247;26;20359;-71
2021/04/06 11:09:47;;;;;;;2.30;2.20;;;;;;;2.76;69.32;100921.69;5321586;26;20065;-72
2021/04/06 11:12:15;;;;;;;2.15;2.05;;;;;;;1.89;74.32;100931.59;5339977;26;20090;-71
2021/04/06 11:14:41;;;;;;;2.30;2.20;;;;;;;1.37;76.70;100916.69;5340115;26;20038;-72
2021/04/06 11:17:07;;;;;;;2.10;2.00;;;;;;;1.15;78.10;100923.81;5321913;26;20039;-71
2021/04/06 11:19:34;;;;;;;1.95;1.87;;;;;;;1.19;76.96;100910.84;5320444;26;20063;-71
2021/04/06 11:22:06;;;;;;;2.00;1.90;;;;;;;1.61;75.20;100915.56;5323265;26;20065;-72
2021/04/06 11:24:32;;;;;;;2.58;2.47;;;;;;;1.94;73.37;100906.50;5322080;26;20552;-72
2021/04/06 11:26:58;;;;;;;2.00;1.90;;;;;;;2.19;74.02;100906.19;5321743;26;20042;-72
2021/04/06 11:29:25;;;;;;;2.10;2.03;;;;;;;2.44;75.76;100923.94;5323137;26;20139;-71
2021/04/06 11:31:54;;;;;;;2.10;2.00;;;;;;;2.56;73.94;100897.84;5322482;26;20043;-73
2021/04/06 11:34:20;;;;;;;2.00;1.90;;;;;;;2.82;73.39;100917.31;5322380;26;20049;-72
2021/04/06 11:36:46;;;;;;;2.00;1.90;;;;;;;2.35;74.41;100925.78;5322416;26;20043;-72
2021/04/06 11:39:13;;;;;;;2.30;2.20;;;;;;;2.33;74.20;100917.19;5319126;26;20163;-72